sensor_id;sensor_type;location;lat;lon;timestamp;pressure;altitude;pressure_sealevel;temperature;humidity
16821;BME280;8527;49.740;6.604;2024-01-30T00:03:45;101065.44;;;3.38;100.00
16821;BME280;8527;49.740;6.604;2024-01-30T00:08:45;101069.94;;;3.36;100.00
16821;BME280;8527;49.740;6.604;2024-01-30T00:13:47;101066.38;;;3.37;100.00
16821;BME280;8527;49.740;6.604;2024-01-30T00:18:45;101065.44;;;3.38;100.00
16821;BME280;8527;49.740;6.604;2024-01-30T00:23:46;101071.75;;;3.35;100.00
16821;BME280;8527;49.740;6.604;2024-01-30T00:28:47;101060.66;;;3.30;100.00
16821;BME280;8527;49.740;6.604;2024-01-30T00:33:46;101054.59;;;3.14;100.00
16821;BME280;8527;49.740;6.604;2024-01-30T00:38:44;101055.97;;;3.05;100.00
16821;BME280;8527;49.740;6.604;2024-01-30T00:43:50;101051.69;;;3.04;100.00
16821;BME280;8527;49.740;6.604;2024-01-30T00:48:48;101055.97;;;3.05;100.00
16821;BME280;8527;49.740;6.604;2024-01-30T00:53:47;101046.53;;;2.86;100.00
16821;BME280;8527;49.740;6.604;2024-01-30T00:58:48;101050.31;;;2.80;100.00
16821;BME280;8527;49.740;6.604;2024-01-30T01:03:50;101045.34;;;2.76;100.00
16821;BME280;8527;49.740;6.604;2024-01-30T01:08:48;101044.50;;;2.75;100.00
16821;BME280;8527;49.740;6.604;2024-01-30T01:13:49;101044.69;;;2.72;100.00
16821;BME280;8527;49.740;6.604;2024-01-30T01:18:47;101041.13;;;2.73;100.00
16821;BME280;8527;49.740;6.604;2024-01-30T01:23:49;101042.72;;;2.76;100.00
16821;BME280;8527;49.740;6.604;2024-01-30T01:28:53;101045.94;;;2.65;100.00
16821;BME280;8527;49.740;6.604;2024-01-30T01:33:51;101045.88;;;2.66;100.00
16821;BME280;8527;49.740;6.604;2024-01-30T01:38:49;101046.53;;;2.54;100.00
16821;BME280;8527;49.740;6.604;2024-01-30T01:43:48;101043.94;;;2.54;100.00
16821;BME280;8527;49.740;6.604;2024-01-30T01:48:49;101046.78;;;2.49;100.00
16821;BME280;8527;49.740;6.604;2024-01-30T01:53:50;101046.44;;;2.56;100.00
16821;BME280;8527;49.740;6.604;2024-01-30T01:58:49;101043.81;;;2.56;100.00
16821;BME280;8527;49.740;6.604;2024-01-30T02:03:55;101045.78;;;2.36;100.00
16821;BME280;8527;49.740;6.604;2024-01-30T02:08:53;101048.81;;;2.44;100.00
16821;BME280;8527;49.740;6.604;2024-01-30T02:13:52;101035.28;;;2.52;100.00
16821;BME280;8527;49.740;6.604;2024-01-30T02:18:53;101037.41;;;2.29;100.00
16821;BME280;8527;49.740;6.604;2024-01-30T02:23:54;101043.28;;;2.33;100.00
16821;BME280;8527;49.740;6.604;2024-01-30T02:28:53;101044.91;;;2.35;100.00
16821;BME280;8527;49.740;6.604;2024-01-30T02:33:53;101044.09;;;2.35;100.00
16821;BME280;8527;49.740;6.604;2024-01-30T02:38:54;101043.50;;;2.46;100.00
16821;BME280;8527;49.740;6.604;2024-01-30T02:43:52;101038.50;;;2.41;100.00
16821;BME280;8527;49.740;6.604;2024-01-30T02:48:50;101041.19;;;2.39;100.00
16821;BME280;8527;49.740;6.604;2024-01-30T02:53:49;101046.69;;;2.51;100.00
16821;BME280;8527;49.740;6.604;2024-01-30T02:58:50;101043.31;;;2.49;100.00
16821;BME280;8527;49.740;6.604;2024-01-30T03:03:48;101046.88;;;2.48;100.00
16821;BME280;8527;49.740;6.604;2024-01-30T03:08:47;101033.28;;;2.57;100.00
16821;BME280;8527;49.740;6.604;2024-01-30T03:13:45;101032.59;;;2.53;100.00
16821;BME280;8527;49.740;6.604;2024-01-30T03:18:48;101036.72;;;2.58;100.00
16821;BME280;8527;49.740;6.604;2024-01-30T03:23:47;101033.16;;;2.59;100.00
16821;BME280;8527;49.740;6.604;2024-01-30T03:28:48;101030.31;;;2.63;100.00
16821;BME280;8527;49.740;6.604;2024-01-30T03:33:49;101034.97;;;2.58;100.00
16821;BME280;8527;49.740;6.604;2024-01-30T03:38:48;101032.75;;;2.50;100.00
16821;BME280;8527;49.740;6.604;2024-01-30T03:43:50;101033.00;;;2.46;100.00
16821;BME280;8527;49.740;6.604;2024-01-30T03:48:51;101023.28;;;2.48;100.00
16821;BME280;8527;49.740;6.604;2024-01-30T03:53:52;101033.53;;;2.52;100.00
16821;BME280;8527;49.740;6.604;2024-01-30T03:58:50;101032.09;;;2.47;100.00
16821;BME280;8527;49.740;6.604;2024-01-30T04:03:51;101033.69;;;2.49;100.00
16821;BME280;8527;49.740;6.604;2024-01-30T04:08:49;101034.38;;;2.53;100.00
16821;BME280;8527;49.740;6.604;2024-01-30T04:13:48;101033.59;;;2.51;100.00
16821;BME280;8527;49.740;6.604;2024-01-30T04:18:46;101040.53;;;2.52;100.00
16821;BME280;8527;49.740;6.604;2024-01-30T04:23:47;101040.69;;;2.49;100.00
16821;BME280;8527;49.740;6.604;2024-01-30T04:28:46;101044.41;;;2.45;100.00
16821;BME280;8527;49.740;6.604;2024-01-30T04:33:44;101037.50;;;2.44;100.00
16821;BME280;8527;49.740;6.604;2024-01-30T04:38:48;101042.22;;;2.37;100.00
16821;BME280;8527;49.740;6.604;2024-01-30T04:43:49;101041.97;;;2.42;100.00
16821;BME280;8527;49.740;6.604;2024-01-30T04:48:48;101034.78;;;2.45;100.00
16821;BME280;8527;49.740;6.604;2024-01-30T04:53:49;101039.59;;;2.37;100.00
16821;BME280;8527;49.740;6.604;2024-01-30T04:58:48;101048.28;;;2.21;100.00
16821;BME280;8527;49.740;6.604;2024-01-30T05:03:46;101045.75;;;2.20;100.00
16821;BME280;8527;49.740;6.604;2024-01-30T05:08:49;101047.94;;;2.28;100.00
16821;BME280;8527;49.740;6.604;2024-01-30T05:13:50;101051.50;;;2.27;100.00
16821;BME280;8527;49.740;6.604;2024-01-30T05:18:48;101050.56;;;2.28;100.00
16821;BME280;8527;49.740;6.604;2024-01-30T05:23:52;101041.72;;;2.30;100.00
16821;BME280;8527;49.740;6.604;2024-01-30T05:28:50;101041.09;;;2.25;100.00
16821;BME280;8527;49.740;6.604;2024-01-30T05:33:48;101039.75;;;2.34;100.00
16821;BME280;8527;49.740;6.604;2024-01-30T05:38:50;101050.75;;;2.24;100.00
16821;BME280;8527;49.740;6.604;2024-01-30T05:43:51;101050.88;;;2.05;100.00
16821;BME280;8527;49.740;6.604;2024-01-30T05:48:52;101048.84;;;2.10;100.00
16821;BME280;8527;49.740;6.604;2024-01-30T05:53:51;101052.72;;;2.03;100.00
16821;BME280;8527;49.740;6.604;2024-01-30T05:58:52;101038.03;;;2.01;100.00
16821;BME280;8527;49.740;6.604;2024-01-30T06:03:51;101049.78;;;2.09;100.00
16821;BME280;8527;49.740;6.604;2024-01-30T06:08:50;101046.84;;;2.16;100.00
16821;BME280;8527;49.740;6.604;2024-01-30T06:13:53;101052.63;;;2.05;100.00
16821;BME280;8527;49.740;6.604;2024-01-30T06:18:51;101046.97;;;1.96;100.00
16821;BME280;8527;49.740;6.604;2024-01-30T06:23:50;101049.25;;;2.03;100.00
16821;BME280;8527;49.740;6.604;2024-01-30T06:28:56;101055.41;;;2.02;100.00
16821;BME280;8527;49.740;6.604;2024-01-30T06:33:58;101050.69;;;2.08;100.00
16821;BME280;8527;49.740;6.604;2024-01-30T06:38:56;101043.53;;;2.12;100.00
16821;BME280;8527;49.740;6.604;2024-01-30T06:44:05;101040.56;;;2.18;100.00
16821;BME280;8527;49.740;6.604;2024-01-30T06:49:07;101041.97;;;1.92;100.00
16821;BME280;8527;49.740;6.604;2024-01-30T06:54:07;101041.50;;;1.83;100.00
16821;BME280;8527;49.740;6.604;2024-01-30T06:59:08;101049.31;;;1.85;100.00
16821;BME280;8527;49.740;6.604;2024-01-30T07:04:07;101051.13;;;1.83;100.00
16821;BME280;8527;49.740;6.604;2024-01-30T07:09:05;101064.31;;;1.81;100.00
16821;BME280;8527;49.740;6.604;2024-01-30T07:14:04;101056.34;;;2.01;100.00
16821;BME280;8527;49.740;6.604;2024-01-30T07:19:05;101053.72;;;2.01;100.00
16821;BME280;8527;49.740;6.604;2024-01-30T07:24:05;101060.56;;;2.03;100.00
16821;BME280;8527;49.740;6.604;2024-01-30T07:29:03;101062.75;;;1.95;100.00
16821;BME280;8527;49.740;6.604;2024-01-30T07:34:02;101073.81;;;2.00;100.00
16821;BME280;8527;49.740;6.604;2024-01-30T07:39:03;101078.28;;;1.98;100.00
16821;BME280;8527;49.740;6.604;2024-01-30T07:44:08;101084.13;;;2.03;100.00
16821;BME280;8527;49.740;6.604;2024-01-30T07:49:08;101082.88;;;2.10;100.00
16821;BME280;8527;49.740;6.604;2024-01-30T07:54:09;101086.78;;;2.19;100.00
16821;BME280;8527;49.740;6.604;2024-01-30T07:59:10;101090.44;;;2.33;100.00
16821;BME280;8527;49.740;6.604;2024-01-30T08:04:08;101088.59;;;2.35;100.00
16821;BME280;8527;49.740;6.604;2024-01-30T08:09:09;101090.84;;;2.25;100.00
16821;BME280;8527;49.740;6.604;2024-01-30T08:14:07;101091.56;;;2.45;100.00
16821;BME280;8527;49.740;6.604;2024-01-30T08:19:06;101092.31;;;2.47;100.00
16821;BME280;8527;49.740;6.604;2024-01-30T08:24:09;101083.38;;;2.51;100.00
16821;BME280;8527;49.740;6.604;2024-01-30T08:29:11;101079.50;;;2.58;100.00
16821;BME280;8527;49.740;6.604;2024-01-30T08:34:09;101082.56;;;2.66;100.00
16821;BME280;8527;49.740;6.604;2024-01-30T08:39:10;101094.19;;;2.77;100.00
16821;BME280;8527;49.740;6.604;2024-01-30T08:44:17;101093.63;;;2.88;100.00
16821;BME280;8527;49.740;6.604;2024-01-30T08:49:17;101112.03;;;2.86;100.00
16821;BME280;8527;49.740;6.604;2024-01-30T08:54:18;101106.03;;;2.84;100.00
16821;BME280;8527;49.740;6.604;2024-01-30T08:59:16;101111.88;;;2.89;100.00
16821;BME280;8527;49.740;6.604;2024-01-30T09:04:15;101106.63;;;2.89;100.00
16821;BME280;8527;49.740;6.604;2024-01-30T09:09:13;101102.06;;;2.93;100.00
16821;BME280;8527;49.740;6.604;2024-01-30T09:14:15;101113.22;;;3.13;100.00
16821;BME280;8527;49.740;6.604;2024-01-30T09:19:15;101107.69;;;3.33;100.00
16821;BME280;8527;49.740;6.604;2024-01-30T09:24:13;101117.72;;;3.41;100.00
16821;BME280;8527;49.740;6.604;2024-01-30T09:29:17;101105.44;;;3.58;100.00
16821;BME280;8527;49.740;6.604;2024-01-30T09:34:15;101106.94;;;3.62;100.00
16821;BME280;8527;49.740;6.604;2024-01-30T09:39:14;101121.44;;;3.84;100.00
16821;BME280;8527;49.740;6.604;2024-01-30T09:44:20;101124.81;;;3.86;100.00
16821;BME280;8527;49.740;6.604;2024-01-30T09:49:19;101135.25;;;4.02;100.00
16821;BME280;8527;49.740;6.604;2024-01-30T09:54:20;101130.97;;;4.15;100.00
16821;BME280;8527;49.740;6.604;2024-01-30T09:59:24;101142.59;;;4.26;100.00
16821;BME280;8527;49.740;6.604;2024-01-30T10:04:22;101138.19;;;4.26;100.00
16821;BME280;8527;49.740;6.604;2024-01-30T10:09:23;101138.84;;;4.44;100.00
16821;BME280;8527;49.740;6.604;2024-01-30T10:14:24;101144.47;;;4.67;100.00
16821;BME280;8527;49.740;6.604;2024-01-30T10:19:26;101146.72;;;4.88;100.00
16821;BME280;8527;49.740;6.604;2024-01-30T10:24:25;101137.13;;;5.14;100.00
16821;BME280;8527;49.740;6.604;2024-01-30T10:29:28;101162.34;;;5.04;100.00
16821;BME280;8527;49.740;6.604;2024-01-30T10:34:27;101160.28;;;5.09;100.00
16821;BME280;8527;49.740;6.604;2024-01-30T10:39:28;101155.69;;;5.13;100.00
16821;BME280;8527;49.740;6.604;2024-01-30T10:44:36;101159.28;;;5.25;100.00
16821;BME280;8527;49.740;6.604;2024-01-30T10:49:35;101152.88;;;5.56;100.00
16821;BME280;8527;49.740;6.604;2024-01-30T10:54:35;101152.00;;;5.83;100.00
16821;BME280;8527;49.740;6.604;2024-01-30T10:59:43;101139.19;;;6.04;100.00
16821;BME280;8527;49.740;6.604;2024-01-30T11:04:42;101139.22;;;6.17;100.00
16821;BME280;8527;49.740;6.604;2024-01-30T11:09:50;101126.34;;;6.39;100.00
16821;BME280;8527;49.740;6.604;2024-01-30T11:15:01;101122.16;;;6.73;100.00
16821;BME280;8527;49.740;6.604;2024-01-30T11:20:02;101111.75;;;6.96;100.00
16821;BME280;8527;49.740;6.604;2024-01-30T11:25:02;101110.44;;;7.15;100.00
16821;BME280;8527;49.740;6.604;2024-01-30T11:30:05;101114.56;;;7.30;100.00
16821;BME280;8527;49.740;6.604;2024-01-30T11:35:05;101111.03;;;7.43;100.00
16821;BME280;8527;49.740;6.604;2024-01-30T11:40:07;101110.22;;;7.54;100.00
16821;BME280;8527;49.740;6.604;2024-01-30T11:45:09;101114.69;;;7.65;100.00
16821;BME280;8527;49.740;6.604;2024-01-30T11:50:11;101116.28;;;7.79;100.00
16821;BME280;8527;49.740;6.604;2024-01-30T11:55:09;101115.09;;;7.83;100.00
16821;BME280;8527;49.740;6.604;2024-01-30T12:00:18;101106.09;;;7.85;100.00
16821;BME280;8527;49.740;6.604;2024-01-30T12:05:18;101097.84;;;8.01;100.00
16821;BME280;8527;49.740;6.604;2024-01-30T12:10:17;101095.69;;;8.07;100.00
16821;BME280;8527;49.740;6.604;2024-01-30T12:15:30;101103.97;;;8.13;100.00
16821;BME280;8527;49.740;6.604;2024-01-30T12:20:28;101098.94;;;8.22;100.00
16821;BME280;8527;49.740;6.604;2024-01-30T12:25:27;101094.75;;;8.42;100.00
16821;BME280;8527;49.740;6.604;2024-01-30T12:30:28;101089.59;;;8.52;98.84
16821;BME280;8527;49.740;6.604;2024-01-30T12:35:26;101087.44;;;8.57;98.46
16821;BME280;8527;49.740;6.604;2024-01-30T12:40:25;101099.44;;;8.61;97.75
16821;BME280;8527;49.740;6.604;2024-01-30T12:45:27;101094.38;;;8.69;97.73
16821;BME280;8527;49.740;6.604;2024-01-30T12:50:26;101096.16;;;8.80;96.68
16821;BME280;8527;49.740;6.604;2024-01-30T12:55:24;101084.72;;;8.91;96.44
16821;BME280;8527;49.740;6.604;2024-01-30T13:00:23;101083.69;;;9.04;96.89
16821;BME280;8527;49.740;6.604;2024-01-30T13:05:25;101101.88;;;9.08;95.81
16821;BME280;8527;49.740;6.604;2024-01-30T13:10:23;101091.88;;;9.12;95.47
16821;BME280;8527;49.740;6.604;2024-01-30T13:15:22;101097.75;;;9.15;94.83
16821;BME280;8527;49.740;6.604;2024-01-30T13:20:21;101097.66;;;9.17;94.95
16821;BME280;8527;49.740;6.604;2024-01-30T13:25:28;101090.88;;;9.24;94.95
16821;BME280;8527;49.740;6.604;2024-01-30T13:30:26;101097.47;;;9.30;95.08
16821;BME280;8527;49.740;6.604;2024-01-30T13:35:25;101103.22;;;9.35;94.97
16821;BME280;8527;49.740;6.604;2024-01-30T13:40:26;101097.53;;;9.40;95.79
16821;BME280;8527;49.740;6.604;2024-01-30T13:45:24;101095.03;;;9.38;94.52
16821;BME280;8527;49.740;6.604;2024-01-30T13:50:26;101098.13;;;9.43;95.04
16821;BME280;8527;49.740;6.604;2024-01-30T13:55:27;101104.00;;;9.47;94.75
16821;BME280;8527;49.740;6.604;2024-01-30T14:00:29;101090.13;;;9.55;94.97
16821;BME280;8527;49.740;6.604;2024-01-30T14:05:30;101104.41;;;9.64;94.64
16821;BME280;8527;49.740;6.604;2024-01-30T14:10:31;101105.38;;;9.63;94.22
16821;BME280;8527;49.740;6.604;2024-01-30T14:15:29;101101.75;;;9.64;94.54
16821;BME280;8527;49.740;6.604;2024-01-30T14:20:28;101104.03;;;9.68;94.99
16821;BME280;8527;49.740;6.604;2024-01-30T14:25:26;101111.72;;;9.71;94.65
16821;BME280;8527;49.740;6.604;2024-01-30T14:30:30;101110.50;;;9.76;94.74
16821;BME280;8527;49.740;6.604;2024-01-30T14:35:37;101118.94;;;9.69;94.65
16821;BME280;8527;49.740;6.604;2024-01-30T14:40:35;101109.38;;;9.78;95.27
16821;BME280;8527;49.740;6.604;2024-01-30T14:45:37;101109.84;;;9.83;94.96
16821;BME280;8527;49.740;6.604;2024-01-30T14:50:36;101121.59;;;9.91;95.45
16821;BME280;8527;49.740;6.604;2024-01-30T14:55:36;101121.03;;;9.87;94.52
16821;BME280;8527;49.740;6.604;2024-01-30T15:00:38;101124.25;;;9.91;94.68
16821;BME280;8527;49.740;6.604;2024-01-30T15:05:41;101127.81;;;9.80;95.06
16821;BME280;8527;49.740;6.604;2024-01-30T15:10:40;101134.84;;;9.91;95.37
16821;BME280;8527;49.740;6.604;2024-01-30T15:15:43;101126.25;;;9.98;95.05
16821;BME280;8527;49.740;6.604;2024-01-30T15:20:42;101134.19;;;9.98;94.86
16821;BME280;8527;49.740;6.604;2024-01-30T15:25:40;101130.13;;;9.94;95.41
16821;BME280;8527;49.740;6.604;2024-01-30T15:30:39;101138.69;;;9.98;95.15
16821;BME280;8527;49.740;6.604;2024-01-30T15:35:41;101149.16;;;9.99;95.35
16821;BME280;8527;49.740;6.604;2024-01-30T15:40:39;101140.03;;;9.92;96.13
16821;BME280;8527;49.740;6.604;2024-01-30T15:45:41;101150.75;;;9.91;96.48
16821;BME280;8527;49.740;6.604;2024-01-30T15:50:42;101157.03;;;9.90;96.18
16821;BME280;8527;49.740;6.604;2024-01-30T15:55:40;101158.72;;;9.91;96.92
16821;BME280;8527;49.740;6.604;2024-01-30T16:00:41;101163.63;;;9.95;98.56
16821;BME280;8527;49.740;6.604;2024-01-30T16:05:42;101168.34;;;9.92;99.53
16821;BME280;8527;49.740;6.604;2024-01-30T16:10:43;101174.50;;;9.92;100.00
16821;BME280;8527;49.740;6.604;2024-01-30T16:15:41;101183.16;;;9.94;100.00
16821;BME280;8527;49.740;6.604;2024-01-30T16:20:42;101184.66;;;9.87;100.00
16821;BME280;8527;49.740;6.604;2024-01-30T16:25:41;101189.22;;;9.85;100.00
16821;BME280;8527;49.740;6.604;2024-01-30T16:30:40;101189.03;;;9.77;100.00
16821;BME280;8527;49.740;6.604;2024-01-30T16:35:38;101203.25;;;9.76;100.00
16821;BME280;8527;49.740;6.604;2024-01-30T16:40:39;101198.06;;;9.74;100.00
16821;BME280;8527;49.740;6.604;2024-01-30T16:45:41;101204.47;;;9.71;100.00
16821;BME280;8527;49.740;6.604;2024-01-30T16:50:40;101211.00;;;9.67;100.00
16821;BME280;8527;49.740;6.604;2024-01-30T16:55:42;101211.75;;;9.58;100.00
16821;BME280;8527;49.740;6.604;2024-01-30T17:00:40;101213.41;;;9.59;100.00
16821;BME280;8527;49.740;6.604;2024-01-30T17:05:39;101214.66;;;9.55;100.00
16821;BME280;8527;49.740;6.604;2024-01-30T17:10:43;101213.44;;;9.48;100.00
16821;BME280;8527;49.740;6.604;2024-01-30T17:15:42;101223.69;;;9.52;100.00
16821;BME280;8527;49.740;6.604;2024-01-30T17:20:45;101240.19;;;9.45;100.00
16821;BME280;8527;49.740;6.604;2024-01-30T17:25:47;101237.28;;;9.48;100.00
16821;BME280;8527;49.740;6.604;2024-01-30T17:30:46;101236.72;;;9.44;100.00
16821;BME280;8527;49.740;6.604;2024-01-30T17:35:47;101227.22;;;9.41;100.00
16821;BME280;8527;49.740;6.604;2024-01-30T17:40:48;101232.03;;;9.36;100.00
16821;BME280;8527;49.740;6.604;2024-01-30T17:45:47;101232.97;;;9.47;100.00
16821;BME280;8527;49.740;6.604;2024-01-30T17:50:45;101241.41;;;9.40;100.00
16821;BME280;8527;49.740;6.604;2024-01-30T17:55:44;101243.34;;;9.38;100.00
16821;BME280;8527;49.740;6.604;2024-01-30T18:00:45;101237.81;;;9.41;100.00
16821;BME280;8527;49.740;6.604;2024-01-30T18:05:46;101247.44;;;9.42;100.00
16821;BME280;8527;49.740;6.604;2024-01-30T18:10:48;101259.59;;;9.45;100.00
16821;BME280;8527;49.740;6.604;2024-01-30T18:15:52;101257.06;;;9.32;100.00
16821;BME280;8527;49.740;6.604;2024-01-30T18:20:51;101248.66;;;9.27;100.00
16821;BME280;8527;49.740;6.604;2024-01-30T18:25:50;101259.00;;;9.30;100.00
16821;BME280;8527;49.740;6.604;2024-01-30T18:30:57;101275.00;;;9.28;100.00
16821;BME280;8527;49.740;6.604;2024-01-30T18:35:56;101280.66;;;9.35;100.00
16821;BME280;8527;49.740;6.604;2024-01-30T18:40:54;101276.13;;;9.26;100.00
16821;BME280;8527;49.740;6.604;2024-01-30T18:45:53;101277.44;;;9.20;100.00
16821;BME280;8527;49.740;6.604;2024-01-30T18:50:54;101293.19;;;9.22;100.00
16821;BME280;8527;49.740;6.604;2024-01-30T18:55:55;101291.41;;;9.11;100.00
16821;BME280;8527;49.740;6.604;2024-01-30T19:00:53;101300.56;;;9.07;100.00
16821;BME280;8527;49.740;6.604;2024-01-30T19:05:58;101293.69;;;9.04;100.00
16821;BME280;8527;49.740;6.604;2024-01-30T19:10:59;101286.59;;;9.05;100.00
16821;BME280;8527;49.740;6.604;2024-01-30T19:15:57;101285.84;;;9.03;100.00
16821;BME280;8527;49.740;6.604;2024-01-30T19:21:01;101290.31;;;9.02;100.00
16821;BME280;8527;49.740;6.604;2024-01-30T19:25:59;101297.91;;;9.07;100.00
16821;BME280;8527;49.740;6.604;2024-01-30T19:30:59;101287.19;;;9.08;100.00
16821;BME280;8527;49.740;6.604;2024-01-30T19:36:05;101294.03;;;8.99;100.00
16821;BME280;8527;49.740;6.604;2024-01-30T19:41:17;101301.88;;;9.01;100.00
16821;BME280;8527;49.740;6.604;2024-01-30T19:46:16;101295.72;;;9.00;100.00
16821;BME280;8527;49.740;6.604;2024-01-30T19:51:18;101300.91;;;9.02;100.00
16821;BME280;8527;49.740;6.604;2024-01-30T19:56:16;101297.31;;;9.03;100.00
16821;BME280;8527;49.740;6.604;2024-01-30T20:01:16;101299.22;;;9.01;100.00
16821;BME280;8527;49.740;6.604;2024-01-30T20:06:17;101291.28;;;9.01;100.00
16821;BME280;8527;49.740;6.604;2024-01-30T20:11:15;101299.22;;;9.01;100.00
16821;BME280;8527;49.740;6.604;2024-01-30T20:16:14;101304.03;;;8.96;100.00
16821;BME280;8527;49.740;6.604;2024-01-30T20:21:12;101303.56;;;9.02;100.00
16821;BME280;8527;49.740;6.604;2024-01-30T20:26:13;101311.00;;;8.97;100.00
16821;BME280;8527;49.740;6.604;2024-01-30T20:31:12;101315.13;;;9.01;100.00
16821;BME280;8527;49.740;6.604;2024-01-30T20:36:10;101323.66;;;9.05;100.00
16821;BME280;8527;49.740;6.604;2024-01-30T20:41:09;101331.09;;;8.99;100.00
16821;BME280;8527;49.740;6.604;2024-01-30T20:46:11;101323.88;;;9.01;100.00
16821;BME280;8527;49.740;6.604;2024-01-30T20:51:10;101339.66;;;9.03;100.00
16821;BME280;8527;49.740;6.604;2024-01-30T20:56:09;101338.69;;;9.04;100.00
16821;BME280;8527;49.740;6.604;2024-01-30T21:01:10;101343.53;;;9.10;100.00
16821;BME280;8527;49.740;6.604;2024-01-30T21:06:10;101343.53;;;9.10;100.00
16821;BME280;8527;49.740;6.604;2024-01-30T21:11:08;101341.47;;;9.14;100.00
16821;BME280;8527;49.740;6.604;2024-01-30T21:16:12;101358.19;;;9.14;100.00
16821;BME280;8527;49.740;6.604;2024-01-30T21:21:11;101352.66;;;9.18;100.00
16821;BME280;8527;49.740;6.604;2024-01-30T21:26:09;101362.16;;;8.97;100.00
16821;BME280;8527;49.740;6.604;2024-01-30T21:31:12;101380.44;;;9.00;100.00
16821;BME280;8527;49.740;6.604;2024-01-30T21:36:14;101376.97;;;9.00;100.00
16821;BME280;8527;49.740;6.604;2024-01-30T21:41:14;101386.06;;;8.96;100.00
16821;BME280;8527;49.740;6.604;2024-01-30T21:46:28;101395.22;;;8.92;100.00
16821;BME280;8527;49.740;6.604;2024-01-30T21:51:26;101396.66;;;8.96;100.00
16821;BME280;8527;49.740;6.604;2024-01-30T21:56:24;101389.66;;;8.83;100.00
16821;BME280;8527;49.740;6.604;2024-01-30T22:01:27;101397.72;;;8.82;100.00
16821;BME280;8527;49.740;6.604;2024-01-30T22:06:26;101408.03;;;8.73;100.00
16821;BME280;8527;49.740;6.604;2024-01-30T22:11:28;101408.75;;;8.76;100.00
16821;BME280;8527;49.740;6.604;2024-01-30T22:16:29;101423.69;;;8.77;100.00
16821;BME280;8527;49.740;6.604;2024-01-30T22:21:27;101418.00;;;8.70;100.00
16821;BME280;8527;49.740;6.604;2024-01-30T22:26:27;101429.06;;;8.64;100.00
16821;BME280;8527;49.740;6.604;2024-01-30T22:31:28;101451.41;;;8.60;100.00
16821;BME280;8527;49.740;6.604;2024-01-30T22:36:29;101452.34;;;8.58;100.00
16821;BME280;8527;49.740;6.604;2024-01-30T22:41:33;101440.44;;;8.40;100.00
16821;BME280;8527;49.740;6.604;2024-01-30T22:46:34;101473.63;;;8.57;100.00
16821;BME280;8527;49.740;6.604;2024-01-30T22:51:35;101459.94;;;8.39;100.00
16821;BME280;8527;49.740;6.604;2024-01-30T22:56:33;101465.09;;;8.40;100.00
16821;BME280;8527;49.740;6.604;2024-01-30T23:01:34;101474.44;;;8.33;100.00
16821;BME280;8527;49.740;6.604;2024-01-30T23:06:35;101485.00;;;8.33;100.00
16821;BME280;8527;49.740;6.604;2024-01-30T23:11:35;101490.13;;;8.23;100.00
16821;BME280;8527;49.740;6.604;2024-01-30T23:16:36;101491.91;;;8.23;100.00
16821;BME280;8527;49.740;6.604;2024-01-30T23:21:35;101490.13;;;8.23;100.00
16821;BME280;8527;49.740;6.604;2024-01-30T23:26:33;101493.31;;;8.15;100.00
16821;BME280;8527;49.740;6.604;2024-01-30T23:31:32;101495.09;;;8.15;100.00
16821;BME280;8527;49.740;6.604;2024-01-30T23:36:39;101491.97;;;8.10;100.00
16821;BME280;8527;49.740;6.604;2024-01-30T23:41:37;101502.63;;;8.08;100.00
16821;BME280;8527;49.740;6.604;2024-01-30T23:46:41;101504.00;;;8.01;100.00
16821;BME280;8527;49.740;6.604;2024-01-30T23:51:42;101502.75;;;7.94;100.00
16821;BME280;8527;49.740;6.604;2024-01-30T23:56:42;101505.22;;;7.84;100.00
